createdAt,value
2019-04-10T00:02:39.848Z,43.00
2019-04-10T00:05:36.090Z,43.70
2019-04-10T00:08:32.388Z,43.50
2019-04-10T00:11:27.678Z,43.70
2019-04-10T00:14:24.003Z,43.90
2019-04-10T00:17:19.081Z,43.90
2019-04-10T00:20:16.209Z,44.10
2019-04-10T00:23:13.165Z,44.20
2019-04-10T00:26:08.382Z,44.10
2019-04-10T00:29:05.666Z,44.10
2019-04-10T00:32:02.141Z,44.20
2019-04-10T00:35:00.310Z,44.20
2019-04-10T00:37:56.113Z,44.20
2019-04-10T00:40:52.019Z,44.30
2019-04-10T00:43:48.967Z,44.30
2019-04-10T00:46:44.463Z,44.30
2019-04-10T00:49:39.981Z,44.40
2019-04-10T00:52:35.335Z,44.40
2019-04-10T00:55:32.186Z,44.40
2019-04-10T00:58:27.952Z,44.40
2019-04-10T01:01:23.830Z,44.50
2019-04-10T01:04:18.684Z,44.40
2019-04-10T01:07:14.773Z,44.50
2019-04-10T01:10:12.216Z,44.60
2019-04-10T01:13:08.368Z,44.70
2019-04-10T01:16:04.277Z,44.60
2019-04-10T01:18:59.509Z,44.60
2019-04-10T01:21:54.881Z,44.70
2019-04-10T01:24:50.324Z,45.10
2019-04-10T01:27:45.374Z,44.70
2019-04-10T01:30:40.323Z,44.60
2019-04-10T01:33:35.354Z,44.70
2019-04-10T01:36:31.129Z,44.60
2019-04-10T01:39:30.558Z,44.70
2019-04-10T01:42:27.033Z,44.70
2019-04-10T01:45:22.053Z,44.80
2019-04-10T01:48:18.050Z,44.80
2019-04-10T01:51:15.094Z,44.90
2019-04-10T01:54:11.033Z,45.20
2019-04-10T01:57:06.296Z,45.00
2019-04-10T02:00:01.269Z,45.00
2019-04-10T02:02:58.259Z,45.30
2019-04-10T02:05:53.012Z,45.50
2019-04-10T02:08:48.474Z,46.10
2019-04-10T02:11:46.062Z,45.80
2019-04-10T02:14:41.136Z,46.00
2019-04-10T02:17:36.853Z,46.30
2019-04-10T02:20:31.866Z,46.20
2019-04-10T02:23:28.111Z,46.60
2019-04-10T02:26:23.019Z,46.50
2019-04-10T02:29:19.612Z,46.90
2019-04-10T02:32:16.545Z,46.80
2019-04-10T02:35:17.220Z,46.90
2019-04-10T02:38:27.360Z,47.00
2019-04-10T02:41:10.781Z,46.90
2019-04-10T02:44:07.897Z,47.90
2019-04-10T02:47:04.726Z,47.20
2019-04-10T02:50:00.832Z,47.90
2019-04-10T02:52:57.129Z,46.90
2019-04-10T02:55:53.657Z,47.60
2019-04-10T02:58:51.561Z,47.20
2019-04-10T03:01:47.408Z,47.30
2019-04-10T03:04:44.390Z,47.40
2019-04-10T03:07:40.449Z,47.10
2019-04-10T03:10:44.485Z,47.20
2019-04-10T03:13:35.874Z,47.00
2019-04-10T03:16:31.776Z,47.10
2019-04-10T03:19:29.561Z,47.10
2019-04-10T03:22:25.006Z,47.30
2019-04-10T03:25:21.929Z,49.30
2019-04-10T03:28:17.180Z,48.30
2019-04-10T03:31:13.122Z,48.20
2019-04-10T03:34:36.071Z,48.30
2019-04-10T03:37:28.592Z,48.20
2019-04-10T03:40:23.707Z,48.60
2019-04-10T03:43:19.477Z,49.80
2019-04-10T03:46:14.559Z,48.90
2019-04-10T03:49:10.240Z,49.90
2019-04-10T03:52:07.259Z,49.70
2019-04-10T03:55:02.923Z,49.30
2019-04-10T03:57:59.294Z,49.80
2019-04-10T04:00:55.045Z,49.60
2019-04-10T04:03:51.133Z,49.70
2019-04-10T04:06:48.171Z,50.10
2019-04-10T04:09:43.984Z,50.00
2019-04-10T04:12:39.184Z,50.10
2019-04-10T04:15:35.815Z,51.20
2019-04-10T04:18:33.200Z,50.30
2019-04-10T04:21:29.945Z,50.50
2019-04-10T04:24:28.041Z,50.50
2019-04-10T04:27:23.356Z,50.10
2019-04-10T04:30:18.684Z,50.00
2019-04-10T04:33:13.924Z,52.00
2019-04-10T04:36:09.000Z,54.30
2019-04-10T04:39:17.988Z,53.80
2019-04-10T04:42:03.344Z,52.50
2019-04-10T04:45:00.676Z,51.00
2019-04-10T04:47:56.262Z,49.50
2019-04-10T04:50:52.227Z,48.60
2019-04-10T04:53:50.391Z,47.80
2019-04-10T04:56:46.369Z,47.30
2019-04-10T04:59:42.738Z,46.80
2019-04-10T05:02:40.660Z,46.30
2019-04-10T05:05:56.211Z,45.90
2019-04-10T05:08:53.397Z,45.60
2019-04-10T05:11:48.924Z,45.30
2019-04-10T05:14:44.051Z,45.10
2019-04-10T05:17:39.941Z,44.80
2019-04-10T05:20:44.194Z,44.60
2019-04-10T05:24:01.512Z,44.50
2019-04-10T05:27:02.342Z,44.30
2019-04-10T05:29:58.466Z,44.70
2019-04-10T05:33:06.205Z,45.00
2019-04-10T05:36:01.480Z,45.00
2019-04-10T05:38:59.990Z,44.90
2019-04-10T05:42:02.321Z,45.20
2019-04-10T05:45:09.221Z,45.20
2019-04-10T05:48:11.572Z,44.90
2019-04-10T05:51:10.252Z,44.90
2019-04-10T05:54:14.976Z,44.90
2019-04-10T05:57:20.166Z,45.00
2019-04-10T06:00:21.416Z,45.10
2019-04-10T06:03:24.909Z,45.10
2019-04-10T06:06:35.355Z,45.10
2019-04-10T06:09:33.150Z,45.20
2019-04-10T06:12:28.572Z,44.90
2019-04-10T06:15:24.170Z,44.70
2019-04-10T06:18:21.091Z,44.60
2019-04-10T06:21:27.268Z,44.80
2019-04-10T06:24:24.454Z,44.40
2019-04-10T06:27:20.878Z,44.20
2019-04-10T06:30:17.504Z,44.50
2019-04-10T06:33:20.168Z,44.40
2019-04-10T06:36:30.254Z,44.50
2019-04-10T06:39:28.909Z,44.40
2019-04-10T06:42:44.769Z,44.60
2019-04-10T06:45:35.738Z,44.40
2019-04-10T06:48:32.510Z,44.20
2019-04-10T06:51:33.772Z,44.00
2019-04-10T06:54:30.985Z,43.90
2019-04-10T06:57:28.685Z,43.90
2019-04-10T07:00:30.527Z,43.90
2019-04-10T07:03:43.691Z,44.10
2019-04-10T07:06:36.599Z,43.90
2019-04-10T07:09:26.400Z,43.70
2019-04-10T07:12:24.023Z,43.50
2019-04-10T07:15:23.847Z,43.30
2019-04-10T07:18:20.655Z,43.20
2019-04-10T07:21:17.478Z,43.00
2019-04-10T07:24:18.812Z,43.70
2019-04-10T07:27:35.375Z,42.80
2019-04-10T07:30:34.082Z,43.50
2019-04-10T07:33:32.891Z,42.80
2019-04-10T07:36:30.697Z,42.70
2019-04-10T07:39:28.038Z,42.70
2019-04-10T07:42:35.212Z,42.60
2019-04-10T07:45:27.868Z,43.20
2019-04-10T07:48:31.462Z,43.80
2019-04-10T07:51:28.435Z,44.00
2019-04-10T07:54:24.966Z,44.50
2019-04-10T07:57:24.871Z,44.50
2019-04-10T08:00:20.461Z,44.90
2019-04-10T08:03:20.757Z,45.40
2019-04-10T08:06:17.841Z,45.70
2019-04-10T08:09:14.734Z,46.00
2019-04-10T08:12:16.026Z,45.90
2019-04-10T08:15:18.886Z,46.20
2019-04-10T08:18:15.295Z,46.00
2019-04-10T08:21:13.444Z,45.40
2019-04-10T08:24:09.400Z,45.00
2019-04-10T08:27:05.952Z,44.50
2019-04-10T08:30:01.279Z,43.80
2019-04-10T08:33:01.044Z,43.50
2019-04-10T08:35:53.314Z,43.00
2019-04-10T08:38:49.103Z,42.60
2019-04-10T08:41:46.001Z,42.20
2019-04-10T08:44:42.388Z,42.10
2019-04-10T08:47:39.697Z,41.90
2019-04-10T08:50:34.538Z,41.80
2019-04-10T08:53:29.154Z,41.70
2019-04-10T08:56:24.722Z,41.50
2019-04-10T08:59:21.412Z,41.40
2019-04-10T09:02:16.036Z,41.90
2019-04-10T09:05:11.655Z,42.00
2019-04-10T09:08:13.031Z,41.70
2019-04-10T09:11:45.077Z,41.50
2019-04-10T09:14:43.525Z,41.40
2019-04-10T09:17:39.554Z,41.70
2019-04-10T09:20:35.152Z,42.20
2019-04-10T09:23:40.990Z,42.20
2019-04-10T09:26:28.759Z,42.00
2019-04-10T09:29:25.797Z,41.80
2019-04-10T09:32:26.461Z,41.50
2019-04-10T09:35:22.572Z,41.10
2019-04-10T09:38:21.377Z,40.90
2019-04-10T09:41:21.589Z,40.60
2019-04-10T09:44:37.864Z,40.50
2019-04-10T09:47:38.332Z,40.40
2019-04-10T09:54:43.187Z,40.00
2019-04-10T09:57:38.012Z,40.20
2019-04-10T10:00:33.963Z,40.50
2019-04-10T10:03:32.424Z,40.90
2019-04-10T10:06:34.898Z,41.20
2019-04-10T10:09:29.588Z,40.80
2019-04-10T10:12:28.055Z,40.50
2019-04-10T10:15:27.397Z,40.40
2019-04-10T10:18:29.650Z,40.20
2019-04-10T10:21:50.527Z,40.10
2019-04-10T10:24:48.863Z,40.00
2019-04-10T10:27:46.831Z,39.90
2019-04-10T10:30:42.459Z,40.00
2019-04-10T10:33:39.568Z,39.30
2019-04-10T10:36:42.028Z,38.90
2019-04-10T10:39:37.680Z,38.60
2019-04-10T10:42:39.817Z,38.20
2019-04-10T10:45:36.693Z,38.30
2019-04-10T10:48:34.365Z,38.40
2019-04-10T10:51:39.410Z,38.40
2019-04-10T10:54:39.004Z,38.60
2019-04-10T10:57:35.317Z,38.70
2019-04-10T11:00:33.568Z,38.70
2019-04-10T11:03:30.365Z,38.80
2019-04-10T11:06:26.774Z,39.00
2019-04-10T11:09:22.597Z,39.10
2019-04-10T11:12:20.032Z,39.30
2019-04-10T11:15:46.229Z,39.40
2019-04-10T11:18:44.416Z,39.50
2019-04-10T11:21:47.370Z,39.50
2019-04-10T11:24:44.442Z,40.30
2019-04-10T11:27:42.006Z,39.50
2019-04-10T11:30:41.052Z,39.50
2019-04-10T11:33:37.284Z,39.40
2019-04-10T11:36:32.631Z,39.30
2019-04-10T11:39:31.639Z,39.30
2019-04-10T11:42:28.823Z,39.50
2019-04-10T11:45:30.672Z,39.60
2019-04-10T11:48:29.117Z,39.70
2019-04-10T11:51:33.423Z,39.80
2019-04-10T11:54:32.083Z,39.80
2019-04-10T11:57:30.149Z,39.70
2019-04-10T12:00:47.437Z,39.70
2019-04-10T12:03:37.104Z,39.60
2019-04-10T12:06:37.726Z,39.50
2019-04-10T12:12:46.038Z,39.40
2019-04-10T12:15:44.894Z,39.40
2019-04-10T12:18:45.075Z,39.70
2019-04-10T12:21:42.458Z,39.90
2019-04-10T12:24:42.623Z,40.20
2019-04-10T12:27:41.108Z,40.40
2019-04-10T12:30:43.575Z,40.60
2019-04-10T12:33:40.488Z,40.80
2019-04-10T12:36:37.075Z,41.00
2019-04-10T12:39:41.499Z,41.00
2019-04-10T12:42:46.229Z,41.20
2019-04-10T12:45:46.518Z,41.40
2019-04-10T12:48:45.140Z,41.50
2019-04-10T12:51:42.187Z,41.60
2019-04-10T12:54:40.092Z,41.70
2019-04-10T12:57:34.914Z,41.80
2019-04-10T13:00:29.793Z,41.90
2019-04-10T13:03:25.103Z,42.00
2019-04-10T13:06:20.488Z,42.00
2019-04-10T13:09:17.951Z,42.20
2019-04-10T13:12:15.412Z,42.30
2019-04-10T13:15:12.976Z,42.40
2019-04-10T13:18:10.113Z,42.40
2019-04-10T13:21:10.398Z,42.40
2019-04-10T13:24:13.184Z,42.40
2019-04-10T13:27:19.421Z,42.60
2019-04-10T13:30:16.923Z,42.60
2019-04-10T13:33:12.230Z,42.70
2019-04-10T13:36:09.677Z,42.60
2019-04-10T13:39:06.686Z,42.50
2019-04-10T13:42:03.047Z,42.50
2019-04-10T13:44:59.177Z,42.50
2019-04-10T13:47:54.619Z,42.40
2019-04-10T13:50:50.818Z,42.30
2019-04-10T13:53:46.032Z,42.30
2019-04-10T13:56:41.341Z,42.30
2019-04-10T13:59:37.315Z,42.40
2019-04-10T14:02:37.759Z,42.40
2019-04-10T14:05:34.037Z,42.30
2019-04-10T14:08:47.215Z,42.30
2019-04-10T14:11:27.437Z,42.20
2019-04-10T14:14:23.136Z,42.20
2019-04-10T14:17:19.510Z,42.30
2019-04-10T14:20:17.401Z,42.20
2019-04-10T14:23:17.994Z,42.30
2019-04-10T14:26:41.911Z,42.20
2019-04-10T14:29:28.785Z,42.20
2019-04-10T14:32:38.186Z,42.20
2019-04-10T14:35:33.594Z,42.20
2019-04-10T14:38:28.785Z,42.20
2019-04-10T14:41:24.817Z,42.20
2019-04-10T14:44:20.724Z,42.90
2019-04-10T14:47:16.894Z,42.30
2019-04-10T14:50:13.572Z,42.20
2019-04-10T14:53:09.927Z,42.20
2019-04-10T14:56:06.755Z,42.20
2019-04-10T14:59:02.079Z,42.20
2019-04-10T15:01:59.991Z,42.30
2019-04-10T15:04:55.424Z,42.30
2019-04-10T15:07:51.103Z,42.20
2019-04-10T15:10:49.276Z,42.30
2019-04-10T15:13:45.675Z,42.40
2019-04-10T15:16:52.464Z,42.40
2019-04-10T15:19:38.775Z,42.30
2019-04-10T15:22:34.035Z,42.40
2019-04-10T15:25:29.378Z,42.40
2019-04-10T15:28:25.328Z,42.50
2019-04-10T15:31:21.689Z,42.40
2019-04-10T15:34:16.864Z,42.50
2019-04-10T15:37:12.894Z,42.40
2019-04-10T15:40:17.692Z,42.50
2019-04-10T15:43:06.065Z,42.40
2019-04-10T15:46:02.319Z,42.50
2019-04-10T15:48:58.464Z,42.50
2019-04-10T15:51:55.249Z,42.50
2019-04-10T15:54:53.429Z,42.50
2019-04-10T15:57:53.218Z,42.40
2019-04-10T16:00:43.591Z,42.40
2019-04-10T16:03:38.851Z,42.40
2019-04-10T16:06:37.607Z,42.30
2019-04-10T16:09:44.896Z,42.60
2019-04-10T16:12:31.146Z,42.40
2019-04-10T16:15:27.150Z,42.40
2019-04-10T16:18:24.585Z,42.50
2019-04-10T16:21:20.336Z,42.60
2019-04-10T16:24:16.382Z,42.50
2019-04-10T16:27:11.872Z,42.60
2019-04-10T16:30:12.200Z,42.70
2019-04-10T16:33:07.478Z,42.80
2019-04-10T16:36:03.064Z,42.80
2019-04-10T16:38:58.338Z,43.00
2019-04-10T16:41:54.508Z,43.10
2019-04-10T16:44:51.549Z,43.20
2019-04-10T16:47:47.184Z,43.20
2019-04-10T16:50:44.050Z,43.40
2019-04-10T16:53:41.273Z,43.30
2019-04-10T16:56:36.547Z,43.40
2019-04-10T16:59:32.054Z,43.50
2019-04-10T17:02:28.317Z,43.50
2019-04-10T17:05:24.796Z,43.50
2019-04-10T17:08:21.743Z,43.60
2019-04-10T17:11:17.131Z,43.70
2019-04-10T17:14:13.205Z,43.60
2019-04-10T17:17:08.721Z,43.80
2019-04-10T17:20:05.739Z,43.70
2019-04-10T17:23:02.438Z,43.70
2019-04-10T17:25:58.250Z,43.60
2019-04-10T17:28:54.421Z,43.70
2019-04-10T17:31:49.513Z,43.90
2019-04-10T17:34:45.277Z,43.90
2019-04-10T17:37:42.125Z,43.90
2019-04-10T17:40:45.801Z,43.80
2019-04-10T17:43:35.065Z,43.80
2019-04-10T17:46:31.255Z,43.80
2019-04-10T17:49:27.551Z,43.90
2019-04-10T17:52:24.868Z,43.90
2019-04-10T17:55:20.166Z,43.80
2019-04-10T17:58:16.994Z,43.90
2019-04-10T18:01:15.117Z,43.50
2019-04-10T18:04:11.132Z,43.70
2019-04-10T18:07:07.971Z,43.80
2019-04-10T18:10:04.362Z,43.70
2019-04-10T18:13:01.353Z,43.80
2019-04-10T18:15:57.117Z,43.70
2019-04-10T18:18:53.878Z,43.80
2019-04-10T18:21:50.441Z,43.70
2019-04-10T18:24:46.034Z,43.60
2019-04-10T18:27:40.797Z,43.80
2019-04-10T18:30:37.053Z,43.80
2019-04-10T18:33:32.316Z,43.70
2019-04-10T18:36:27.795Z,43.70
2019-04-10T18:39:23.982Z,43.60
2019-04-10T18:42:19.427Z,43.70
2019-04-10T18:45:14.774Z,43.80
2019-04-10T18:48:11.015Z,43.80
2019-04-10T18:51:08.386Z,43.80
2019-04-10T18:54:03.750Z,43.70
2019-04-10T18:56:59.782Z,43.60
2019-04-10T19:36:12.519Z,43.90
2019-04-10T19:39:09.728Z,44.00
2019-04-10T19:42:05.834Z,43.90
2019-04-10T19:45:01.663Z,43.80
2019-04-10T19:47:58.918Z,43.90
2019-04-10T19:50:53.986Z,43.80
2019-04-10T19:53:49.280Z,43.90
2019-04-10T19:56:44.733Z,43.80
2019-04-10T19:59:40.058Z,43.90
2019-04-10T20:02:40.034Z,44.70
2019-04-10T20:05:35.046Z,43.90
2019-04-10T20:08:29.748Z,44.00
2019-04-10T20:11:34.744Z,44.00
2019-04-10T20:14:22.125Z,44.00
2019-04-10T20:17:17.442Z,44.10
2019-04-10T20:20:13.174Z,44.00
2019-04-10T20:23:08.416Z,44.10
2019-04-10T20:26:05.119Z,44.10
2019-04-10T20:29:00.794Z,44.20
2019-04-10T20:31:57.431Z,44.10
2019-04-10T20:34:53.866Z,44.30
2019-04-10T20:37:51.149Z,44.10
2019-04-10T20:40:47.892Z,44.20
2019-04-10T20:43:47.119Z,44.90
2019-04-10T20:46:44.506Z,44.00
2019-04-10T20:49:40.462Z,44.20
2019-04-10T20:52:39.418Z,44.30
2019-04-10T20:55:33.504Z,44.20
2019-04-10T20:58:29.467Z,44.20
2019-04-10T21:01:24.530Z,44.20
2019-04-10T21:04:19.194Z,44.30
2019-04-10T21:07:14.610Z,44.20
2019-04-10T21:10:10.084Z,44.30
2019-04-10T21:13:05.151Z,44.30
2019-04-10T21:16:00.685Z,44.20
2019-04-10T21:18:55.970Z,44.20
2019-04-10T21:21:51.169Z,44.30
2019-04-10T21:24:46.806Z,44.30
2019-04-10T21:27:42.043Z,44.30
2019-04-10T21:30:54.664Z,44.20
2019-04-10T21:34:17.528Z,44.30
2019-04-10T21:37:12.170Z,44.30
2019-04-10T21:40:08.343Z,44.30
2019-04-10T21:43:03.735Z,44.30
2019-04-10T21:45:59.583Z,44.30
2019-04-10T21:48:55.150Z,44.20
2019-04-10T21:51:51.539Z,44.30
2019-04-10T21:54:51.235Z,44.20
2019-04-10T21:57:43.312Z,44.30
2019-04-10T22:00:55.134Z,44.30
2019-04-10T22:03:50.708Z,44.20
2019-04-10T22:06:55.766Z,44.30
2019-04-10T22:10:15.465Z,44.20
2019-04-10T22:13:11.362Z,44.20
2019-04-10T22:16:07.682Z,44.30
2019-04-10T22:19:03.557Z,44.20
2019-04-10T22:21:58.871Z,44.20
2019-04-10T22:24:54.791Z,44.30
2019-04-10T22:27:49.968Z,44.20
2019-04-10T22:30:45.733Z,44.30
2019-04-10T22:33:40.975Z,44.30
2019-04-10T22:36:39.504Z,44.20
2019-04-10T22:39:35.780Z,44.20
2019-04-10T22:42:40.919Z,44.30
2019-04-10T22:45:32.799Z,44.20
2019-04-10T22:48:28.679Z,43.90
2019-04-10T22:51:23.475Z,44.30
2019-04-10T22:54:18.625Z,44.30
2019-04-10T22:57:14.545Z,44.20
2019-04-10T23:00:11.553Z,44.30
2019-04-10T23:03:08.578Z,44.30
2019-04-10T23:06:04.833Z,44.30
2019-04-10T23:09:00.100Z,44.30
2019-04-10T23:11:58.028Z,44.30
2019-04-10T23:14:53.444Z,44.40
2019-04-10T23:17:48.722Z,44.30
2019-04-10T23:20:43.845Z,44.30
2019-04-10T23:23:39.082Z,44.30
2019-04-10T23:26:35.309Z,44.30
2019-04-10T23:29:30.980Z,44.30
2019-04-10T23:32:26.981Z,44.40
2019-04-10T23:35:22.200Z,44.30
2019-04-10T23:38:17.486Z,44.30
2019-04-10T23:41:13.629Z,44.40
2019-04-10T23:44:08.964Z,44.40
2019-04-10T23:47:04.119Z,44.30
2019-04-10T23:49:59.689Z,44.50
2019-04-10T23:52:56.168Z,44.50
2019-04-10T23:55:52.349Z,44.50
2019-04-10T23:58:48.143Z,44.50
